Queensborough, Washington
Current Conditions -  °F | °C
As of 6:43 AM on Sunday 23 Nov 2014 (Local Time) from KPAE Reporting Station
Moderate Rain Moderate Rain  
Wind Chill: 40°   Ceiling: 3600
Heat Index: 47°   Visibility: 4mi
Dew Point: 43°   Wind: 20mph
Humidity: 86%   Direction: 200°SSW
Pressure: 30.08"   Gusts: 26mph
Location:  47.7933°N, 122.207°W
Report Text: KPAE 231443Z AUTO 20017G23KT 4SM RA BR SCT015 SCT023 OVC036 08/06 A3008 RMK AO2 P0014 T00830061 $
Loading
Personal Weather Stations






























Interactive Weather Map New forecast layout! Learn more

10-Day Weather Forecast

Advertisements
Track Severe Weather on mobile